createdAt,value
2023-01-11T00:00:55.606Z,73.26
2023-01-11T00:01:55.613Z,73.26
2023-01-11T00:02:55.572Z,73.26
2023-01-11T00:03:55.569Z,73.26
2023-01-11T00:04:55.640Z,73.26
2023-01-11T00:05:55.533Z,73.26
2023-01-11T00:06:55.563Z,73.26
2023-01-11T00:07:55.520Z,73.26
2023-01-11T00:08:55.494Z,73.26
2023-01-11T00:09:55.481Z,73.26
2023-01-11T00:10:55.475Z,73.26
2023-01-11T00:11:55.489Z,73.26
2023-01-11T00:12:55.444Z,73.26
2023-01-11T00:13:55.434Z,73.26
2023-01-11T00:14:55.413Z,73.26
2023-01-11T00:15:55.427Z,73.26
2023-01-11T00:16:55.389Z,73.26
2023-01-11T00:17:55.383Z,73.26
2023-01-11T00:18:55.362Z,73.26
2023-01-11T00:19:55.358Z,73.26
2023-01-11T00:20:55.338Z,73.26
2023-01-11T00:21:55.327Z,73.26
2023-01-11T00:22:55.314Z,73.26
2023-01-11T00:23:55.300Z,73.26
2023-01-11T00:24:55.296Z,73.26
2023-01-11T00:25:55.269Z,73.26
2023-01-11T00:26:55.259Z,73.26
2023-01-11T00:27:55.266Z,73.26
2023-01-11T00:28:55.235Z,73.26
2023-01-11T00:29:55.217Z,73.26
2023-01-11T00:30:55.244Z,73.26
2023-01-11T00:31:55.196Z,73.26
2023-01-11T00:32:55.181Z,73.26
2023-01-11T00:33:55.164Z,73.26
2023-01-11T00:34:55.154Z,73.26
2023-01-11T00:35:55.139Z,73.26
2023-01-11T00:36:55.143Z,73.26
2023-01-11T00:37:55.126Z,73.26
2023-01-11T00:38:55.102Z,73.26
2023-01-11T00:39:55.087Z,73.26
2023-01-11T00:40:55.079Z,73.26
2023-01-11T00:41:55.061Z,73.26
2023-01-11T00:42:55.051Z,73.26
2023-01-11T00:43:55.060Z,73.26
2023-01-11T00:44:55.025Z,73.26
2023-01-11T00:45:55.084Z,73.26
2023-01-11T00:46:54.996Z,73.26
2023-01-11T00:47:54.981Z,73.26
2023-01-11T00:48:54.973Z,73.26
2023-01-11T00:49:54.956Z,73.26
2023-01-11T00:50:54.973Z,73.26
2023-01-11T00:51:54.938Z,73.26
2023-01-11T00:52:54.938Z,73.26
2023-01-11T00:53:54.909Z,73.26
2023-01-11T00:54:54.894Z,73.26
2023-01-11T00:55:54.880Z,73.26
2023-01-11T00:56:54.871Z,73.26
2023-01-11T00:57:54.879Z,73.26
2023-01-11T00:58:54.840Z,73.26
2023-01-11T00:59:54.849Z,73.26
2023-01-11T01:00:54.815Z,73.26
2023-01-11T01:01:54.806Z,73.26
2023-01-11T01:02:54.899Z,73.16
2023-01-11T01:03:54.775Z,73.16
2023-01-11T01:04:54.763Z,73.16
2023-01-11T01:05:54.747Z,73.16
2023-01-11T01:06:54.883Z,73.26
2023-01-11T01:07:54.720Z,73.26
2023-01-11T01:08:54.711Z,73.16
2023-01-11T01:09:54.695Z,73.16
2023-01-11T01:10:54.683Z,73.16
2023-01-11T01:11:54.671Z,73.16
2023-01-11T01:12:54.657Z,73.16
2023-01-11T01:13:54.647Z,73.26
2023-01-11T01:14:54.647Z,73.16
2023-01-11T01:15:54.738Z,73.16
2023-01-11T01:16:54.621Z,73.16
2023-01-11T01:17:54.595Z,73.16
2023-01-11T01:18:54.580Z,73.16
2023-01-11T01:19:54.564Z,73.16
2023-01-11T01:20:54.553Z,73.16
2023-01-11T01:21:54.538Z,73.16
2023-01-11T01:22:54.527Z,73.16
2023-01-11T01:23:54.513Z,73.16
2023-01-11T01:24:54.504Z,73.16
2023-01-11T01:25:54.493Z,73.16
2023-01-11T01:26:54.474Z,73.16
2023-01-11T01:27:54.465Z,73.16
2023-01-11T01:28:54.450Z,73.16
2023-01-11T01:29:54.435Z,73.16
2023-01-11T01:30:54.472Z,73.16
2023-01-11T01:31:54.442Z,73.16
2023-01-11T01:32:54.396Z,73.16
2023-01-11T01:33:54.381Z,73.16
2023-01-11T01:34:54.371Z,73.16
2023-01-11T01:35:54.356Z,73.16
2023-01-11T01:36:54.350Z,73.16
2023-01-11T01:37:54.327Z,73.16
2023-01-11T01:38:54.317Z,73.16
2023-01-11T01:39:54.308Z,73.16
2023-01-11T01:40:54.292Z,73.16
2023-01-11T01:41:54.274Z,73.16
2023-01-11T01:42:54.280Z,73.16
2023-01-11T01:43:54.272Z,73.16
2023-01-11T01:44:54.265Z,73.16
2023-01-11T01:45:54.229Z,73.16
2023-01-11T01:46:54.215Z,73.16
2023-01-11T01:47:54.226Z,73.16
2023-01-11T01:48:54.185Z,73.16
2023-01-11T01:49:54.177Z,73.16
2023-01-11T01:50:54.158Z,73.16
2023-01-11T01:51:54.157Z,73.16
2023-01-11T01:52:54.142Z,73.16
2023-01-11T01:53:54.119Z,73.16
2023-01-11T01:54:54.121Z,73.16
2023-01-11T01:55:54.098Z,73.16
2023-01-11T01:56:54.083Z,73.16
2023-01-11T01:57:54.063Z,73.16
2023-01-11T01:58:54.057Z,73.16
2023-01-11T01:59:54.038Z,73.16
2023-01-11T02:00:54.028Z,73.16
2023-01-11T02:01:54.098Z,73.16
2023-01-11T02:02:54.059Z,73.16
2023-01-11T02:03:54.007Z,73.16
2023-01-11T02:04:53.976Z,73.16
2023-01-11T02:05:53.967Z,73.16
2023-01-11T02:06:53.975Z,73.16
2023-01-11T02:07:53.935Z,73.16
2023-01-11T02:08:53.923Z,73.16
2023-01-11T02:09:53.919Z,73.16
2023-01-11T02:10:53.907Z,73.16
2023-01-11T02:11:53.882Z,73.16
2023-01-11T02:12:53.873Z,73.16
2023-01-11T02:13:53.859Z,73.16
2023-01-11T02:14:53.848Z,73.16
2023-01-11T02:15:53.873Z,73.05
2023-01-11T02:16:53.819Z,73.05
2023-01-11T02:17:53.803Z,73.16
2023-01-11T02:18:53.792Z,73.16
2023-01-11T02:19:53.842Z,73.16
2023-01-11T02:20:53.771Z,73.05
2023-01-11T02:21:53.751Z,73.05
2023-01-11T02:22:53.749Z,73.05
2023-01-11T02:23:53.727Z,73.05
2023-01-11T02:24:53.713Z,73.05
2023-01-11T02:25:53.697Z,73.05
2023-01-11T02:26:53.687Z,73.05
2023-01-11T02:27:53.671Z,73.05
2023-01-11T02:28:53.665Z,73.05
2023-01-11T02:29:53.644Z,73.16
2023-01-11T02:30:53.721Z,73.16
2023-01-11T02:31:53.619Z,73.16
2023-01-11T02:32:53.608Z,73.16
2023-01-11T02:33:53.600Z,73.16
2023-01-11T02:34:53.581Z,73.16
2023-01-11T02:35:53.590Z,73.16
2023-01-11T02:36:53.554Z,73.16
2023-01-11T02:37:53.541Z,73.16
2023-01-11T02:38:53.528Z,73.16
2023-01-11T02:39:53.515Z,73.16
2023-01-11T02:40:53.512Z,73.16
2023-01-11T02:41:53.489Z,73.16
2023-01-11T02:42:53.475Z,73.16
2023-01-11T02:43:53.461Z,73.16
2023-01-11T02:44:53.448Z,73.16
2023-01-11T02:45:53.448Z,73.16
2023-01-11T02:46:53.490Z,73.16
2023-01-11T02:47:53.408Z,73.16
2023-01-11T02:48:53.396Z,73.16
2023-01-11T02:49:53.382Z,73.16
2023-01-11T02:50:53.373Z,73.16
2023-01-11T02:51:53.384Z,73.05
2023-01-11T02:52:53.343Z,73.05
2023-01-11T02:53:53.330Z,73.05
2023-01-11T02:54:53.320Z,73.05
2023-01-11T02:55:53.308Z,73.05
2023-01-11T02:56:53.310Z,73.05
2023-01-11T02:57:53.280Z,73.05
2023-01-11T02:58:53.267Z,73.05
2023-01-11T02:59:53.248Z,73.05
2023-01-11T03:00:53.240Z,73.05
2023-01-11T03:01:53.362Z,73.05
2023-01-11T03:02:53.273Z,73.05
2023-01-11T03:03:53.203Z,73.05
2023-01-11T03:04:53.188Z,73.05
2023-01-11T03:05:53.172Z,73.05
2023-01-11T03:06:53.280Z,73.05
2023-01-11T03:07:53.169Z,73.05
2023-01-11T03:08:53.133Z,73.05
2023-01-11T03:09:53.130Z,73.05
2023-01-11T03:10:53.115Z,73.05
2023-01-11T03:11:53.098Z,73.05
2023-01-11T03:12:53.083Z,73.05
2023-01-11T03:13:53.067Z,73.05
2023-01-11T03:14:53.057Z,73.05
2023-01-11T03:15:53.068Z,73.05
2023-01-11T03:16:53.027Z,73.05
2023-01-11T03:17:53.016Z,73.05
2023-01-11T03:18:53.003Z,73.05
2023-01-11T03:19:52.990Z,73.05
2023-01-11T03:20:52.977Z,73.05
2023-01-11T03:21:52.964Z,73.05
2023-01-11T03:22:52.953Z,73.05
2023-01-11T03:23:52.965Z,73.05
2023-01-11T03:24:52.969Z,73.05
2023-01-11T03:25:52.924Z,73.05
2023-01-11T03:26:52.906Z,73.05
2023-01-11T03:27:52.891Z,73.05
2023-01-11T03:28:52.875Z,73.05
2023-01-11T03:29:52.886Z,73.05
2023-01-11T03:30:52.862Z,73.05
2023-01-11T03:31:52.849Z,73.05
2023-01-11T03:32:52.819Z,73.05
2023-01-11T03:33:52.804Z,73.05
2023-01-11T03:34:52.800Z,73.05
2023-01-11T03:35:52.779Z,73.05
2023-01-11T03:36:52.766Z,73.05
2023-01-11T03:37:52.753Z,73.05
2023-01-11T03:38:52.751Z,73.05
2023-01-11T03:39:52.759Z,73.05
2023-01-11T03:40:52.718Z,72.95
2023-01-11T03:41:52.699Z,72.95
2023-01-11T03:42:52.689Z,73.05
2023-01-11T03:43:52.686Z,73.05
2023-01-11T03:44:52.662Z,73.05
2023-01-11T03:45:52.647Z,73.05
2023-01-11T03:46:52.721Z,73.05
2023-01-11T03:47:52.623Z,73.16
2023-01-11T03:48:52.619Z,73.05
2023-01-11T03:49:52.595Z,73.05
2023-01-11T03:50:52.583Z,73.05
2023-01-11T03:51:52.579Z,73.05
2023-01-11T03:52:52.561Z,73.05
2023-01-11T03:53:52.554Z,73.05
2023-01-11T03:54:52.530Z,73.05
2023-01-11T03:55:52.538Z,73.05
2023-01-11T03:56:52.505Z,73.05
2023-01-11T03:57:52.489Z,73.05
2023-01-11T03:58:52.479Z,73.05
2023-01-11T03:59:52.467Z,73.05
2023-01-11T04:00:52.494Z,73.05
2023-01-11T04:01:52.440Z,73.05
2023-01-11T04:02:52.427Z,73.05
2023-01-11T04:03:52.445Z,73.05
2023-01-11T04:04:52.419Z,73.05
2023-01-11T04:05:52.390Z,73.05
2023-01-11T04:06:52.400Z,73.05
2023-01-11T04:07:52.359Z,73.05
2023-01-11T04:08:52.346Z,72.95
2023-01-11T04:09:52.331Z,72.95
2023-01-11T04:10:52.319Z,73.05
2023-01-11T04:11:52.330Z,73.05
2023-01-11T04:12:52.293Z,73.05
2023-01-11T04:13:52.282Z,73.05
2023-01-11T04:14:52.267Z,73.05
2023-01-11T04:15:52.253Z,73.05
2023-01-11T04:16:52.242Z,73.05
2023-01-11T04:17:52.233Z,73.05
2023-01-11T04:18:52.219Z,73.05
2023-01-11T04:19:52.216Z,73.05
2023-01-11T04:20:52.192Z,73.05
2023-01-11T04:21:52.177Z,73.05
2023-01-11T04:22:52.164Z,73.05
2023-01-11T04:23:52.151Z,73.05
2023-01-11T04:24:52.143Z,73.05
2023-01-11T04:25:52.123Z,73.05
2023-01-11T04:26:52.113Z,73.05
2023-01-11T04:27:52.128Z,73.05
2023-01-11T04:28:54.221Z,72.95
2023-01-11T04:29:52.070Z,73.05
2023-01-11T04:30:52.061Z,73.05
2023-01-11T04:31:52.161Z,73.05
2023-01-11T04:32:52.032Z,73.05
2023-01-11T04:33:52.017Z,73.05
2023-01-11T04:34:52.009Z,73.05
2023-01-11T04:35:51.990Z,73.05
2023-01-11T04:36:51.978Z,73.05
2023-01-11T04:37:51.970Z,73.05
2023-01-11T04:38:51.972Z,73.05
2023-01-11T04:39:51.940Z,73.05
2023-01-11T04:40:51.926Z,73.05
2023-01-11T04:41:51.927Z,73.05
2023-01-11T04:42:51.898Z,73.05
2023-01-11T04:43:51.911Z,73.05
2023-01-11T04:44:51.873Z,73.05
2023-01-11T04:45:51.895Z,73.05
2023-01-11T04:46:51.846Z,72.95
2023-01-11T04:47:51.835Z,73.05
2023-01-11T04:48:51.824Z,73.05
2023-01-11T04:49:51.808Z,73.05
2023-01-11T04:50:51.800Z,73.05
2023-01-11T04:51:51.802Z,73.05
2023-01-11T04:52:51.782Z,73.05
2023-01-11T04:53:51.765Z,73.05
2023-01-11T04:54:51.742Z,73.05
2023-01-11T04:55:51.730Z,73.05
2023-01-11T04:56:51.718Z,73.05
2023-01-11T04:57:51.702Z,73.05
2023-01-11T04:58:51.704Z,73.05
2023-01-11T04:59:51.699Z,73.05
2023-01-11T05:00:51.757Z,73.05
2023-01-11T05:01:51.667Z,73.05
2023-01-11T05:02:51.637Z,73.05
2023-01-11T05:03:51.648Z,73.05
2023-01-11T05:04:51.608Z,73.05
2023-01-11T05:05:51.597Z,73.05
2023-01-11T05:06:51.648Z,73.05
2023-01-11T05:07:51.569Z,72.95
2023-01-11T05:08:51.560Z,72.95
2023-01-11T05:09:51.544Z,72.95
2023-01-11T05:10:51.537Z,73.05
2023-01-11T05:11:51.515Z,72.95
2023-01-11T05:12:51.500Z,72.95
2023-01-11T05:13:51.492Z,72.95
2023-01-11T05:14:51.493Z,72.95
2023-01-11T05:15:51.493Z,72.95
2023-01-11T05:16:51.503Z,72.95
2023-01-11T05:17:51.437Z,72.95
2023-01-11T05:18:51.425Z,73.05
2023-01-11T05:19:51.408Z,73.05
2023-01-11T05:20:51.397Z,73.05
2023-01-11T05:21:51.385Z,73.05
2023-01-11T05:22:51.386Z,72.95
2023-01-11T05:23:51.356Z,72.95
2023-01-11T05:24:51.349Z,72.95
2023-01-11T05:25:51.332Z,72.95
2023-01-11T05:26:51.318Z,72.95
2023-01-11T05:27:51.310Z,72.95
2023-01-11T05:28:51.295Z,72.95
2023-01-11T05:29:51.279Z,72.95
2023-01-11T05:30:51.263Z,73.05
2023-01-11T05:31:51.401Z,73.05
2023-01-11T05:32:51.240Z,73.05
2023-01-11T05:33:51.226Z,72.95
2023-01-11T05:34:51.240Z,72.95
2023-01-11T05:35:53.938Z,73.05
2023-01-11T05:36:51.212Z,73.05
2023-01-11T05:37:51.187Z,73.05
2023-01-11T05:38:51.173Z,72.95
2023-01-11T05:39:51.172Z,72.95
2023-01-11T05:40:51.133Z,72.95
2023-01-11T05:41:51.153Z,72.95
2023-01-11T05:42:51.167Z,72.95
2023-01-11T05:43:51.096Z,72.95
2023-01-11T05:44:51.093Z,72.95
2023-01-11T05:45:51.161Z,72.95
2023-01-11T05:46:51.055Z,72.95
2023-01-11T05:47:51.070Z,72.95
2023-01-11T05:48:51.030Z,72.95
2023-01-11T05:49:51.019Z,72.95
2023-01-11T05:50:51.006Z,72.95
2023-01-11T05:51:51.012Z,72.95
2023-01-11T05:52:50.978Z,72.95
2023-01-11T05:53:50.965Z,72.95
2023-01-11T05:54:50.961Z,72.95
2023-01-11T05:55:50.939Z,72.95
2023-01-11T05:56:50.924Z,72.95
2023-01-11T05:57:50.913Z,72.85
2023-01-11T05:58:50.897Z,72.85
2023-01-11T05:59:50.890Z,72.95
2023-01-11T06:00:50.876Z,72.95
2023-01-11T06:01:50.957Z,72.95
2023-01-11T06:02:51.081Z,72.95
2023-01-11T06:03:50.876Z,72.95
2023-01-11T06:04:50.831Z,72.95
2023-01-11T06:05:50.806Z,72.85
2023-01-11T06:06:50.819Z,72.85
2023-01-11T06:07:50.781Z,72.85
2023-01-11T06:08:50.766Z,72.95
2023-01-11T06:09:50.757Z,72.95
2023-01-11T06:10:50.739Z,72.85
2023-01-11T06:11:50.728Z,72.95
2023-01-11T06:12:50.728Z,72.95
2023-01-11T06:13:50.729Z,72.95
2023-01-11T06:14:50.688Z,72.95
2023-01-11T06:15:50.676Z,72.95
2023-01-11T06:16:50.707Z,72.95
2023-01-11T06:17:50.649Z,72.95
2023-01-11T06:18:50.636Z,72.95
2023-01-11T06:19:50.648Z,72.95
2023-01-11T06:20:50.609Z,72.95
2023-01-11T06:21:50.600Z,72.95
2023-01-11T06:22:50.583Z,72.95
2023-01-11T06:23:50.643Z,72.95
2023-01-11T06:24:50.559Z,72.95
2023-01-11T06:25:50.546Z,72.95
2023-01-11T06:26:50.530Z,72.95
2023-01-11T06:27:50.519Z,72.95
2023-01-11T06:28:50.511Z,72.85
2023-01-11T06:29:50.498Z,72.82
2023-01-11T06:30:50.568Z,72.85
2023-01-11T06:31:50.467Z,72.95
2023-01-11T06:32:50.451Z,72.95
2023-01-11T06:33:50.441Z,72.95
2023-01-11T06:34:50.425Z,72.95
2023-01-11T06:35:50.438Z,72.95
2023-01-11T06:36:50.404Z,72.95
2023-01-11T06:37:50.387Z,72.95
2023-01-11T06:38:50.372Z,72.95
2023-01-11T06:39:50.361Z,72.95
2023-01-11T06:40:50.347Z,72.95
2023-01-11T06:41:50.337Z,72.95
2023-01-11T06:42:50.319Z,72.95
2023-01-11T06:43:50.308Z,72.95
2023-01-11T06:44:50.293Z,72.95
2023-01-11T06:45:50.330Z,72.91
2023-01-11T06:46:50.270Z,72.95
2023-01-11T06:47:50.254Z,72.91
2023-01-11T06:48:50.244Z,72.95
2023-01-11T06:49:50.230Z,72.95
2023-01-11T06:50:50.216Z,73.05
2023-01-11T06:51:50.224Z,73.05
2023-01-11T06:52:50.187Z,72.95
2023-01-11T06:53:50.180Z,73.05
2023-01-11T06:54:50.162Z,73.05
2023-01-11T06:55:50.153Z,73.05
2023-01-11T06:56:50.133Z,73.05
2023-01-11T06:57:50.122Z,73.05
2023-01-11T06:58:50.109Z,73.05
2023-01-11T06:59:50.096Z,73.05
2023-01-11T07:00:50.081Z,73.05
2023-01-11T07:01:50.086Z,73.05
2023-01-11T07:02:50.053Z,73.05
2023-01-11T07:03:50.044Z,73.05
2023-01-11T07:04:50.080Z,73.02
2023-01-11T07:05:50.019Z,73.02
2023-01-11T07:06:50.003Z,73.05
2023-01-11T07:07:50.016Z,73.05
2023-01-11T07:08:49.980Z,73.02
2023-01-11T07:09:49.980Z,73.05
2023-01-11T07:10:49.960Z,73.02
2023-01-11T07:11:49.938Z,73.02
2023-01-11T07:12:49.931Z,73.05
2023-01-11T07:13:49.912Z,73.12
2023-01-11T07:14:49.897Z,73.16
2023-01-11T07:15:49.969Z,73.16
2023-01-11T07:16:49.873Z,73.16
2023-01-11T07:17:49.858Z,73.12
2023-01-11T07:18:49.854Z,73.16
2023-01-11T07:19:49.831Z,73.16
2023-01-11T07:20:49.827Z,73.16
2023-01-11T07:21:49.807Z,73.16
2023-01-11T07:22:49.793Z,73.12
2023-01-11T07:23:49.812Z,73.16
2023-01-11T07:24:49.767Z,73.12
2023-01-11T07:25:49.973Z,73.12
2023-01-11T07:26:49.739Z,73.16
2023-01-11T07:27:49.731Z,73.12
2023-01-11T07:28:49.711Z,73.12
2023-01-11T07:29:49.703Z,73.12
2023-01-11T07:30:58.187Z,73.12
2023-01-11T07:31:50.715Z,73.12
2023-01-11T07:32:49.664Z,73.12
2023-01-11T07:33:49.651Z,73.22
2023-01-11T07:34:49.633Z,73.22
2023-01-11T07:35:49.622Z,73.26
2023-01-11T07:36:49.616Z,73.26
2023-01-11T07:37:49.595Z,73.22
2023-01-11T07:38:49.582Z,73.26
2023-01-11T07:39:49.597Z,73.22
2023-01-11T07:40:49.567Z,73.26
2023-01-11T07:41:49.545Z,73.22
2023-01-11T07:42:49.537Z,73.22
2023-01-11T07:43:49.517Z,73.22
2023-01-11T07:44:49.503Z,73.22
2023-01-11T07:45:49.992Z,73.22
2023-01-11T07:46:49.575Z,73.22
2023-01-11T07:47:49.469Z,73.22
2023-01-11T07:48:49.455Z,73.22
2023-01-11T07:49:49.437Z,73.33
2023-01-11T07:50:49.424Z,73.33
2023-01-11T07:51:49.411Z,73.33
2023-01-11T07:52:49.402Z,73.33
2023-01-11T07:53:49.387Z,73.33
2023-01-11T07:54:49.383Z,73.33
2023-01-11T07:55:49.396Z,73.33
2023-01-11T07:56:49.358Z,73.33
2023-01-11T07:57:49.421Z,73.33
2023-01-11T07:58:49.318Z,73.33
2023-01-11T07:59:49.305Z,73.43
2023-01-11T08:00:49.291Z,73.43
2023-01-11T08:01:49.281Z,73.43
2023-01-11T08:02:49.352Z,73.43
2023-01-11T08:03:49.348Z,73.43
2023-01-11T08:04:49.239Z,73.43
2023-01-11T08:05:49.228Z,73.43
2023-01-11T08:06:49.218Z,73.43
2023-01-11T08:07:49.199Z,73.43
2023-01-11T08:08:49.185Z,73.43
2023-01-11T08:09:49.183Z,73.33
2023-01-11T08:10:49.159Z,73.43
2023-01-11T08:11:49.171Z,73.43
2023-01-11T08:12:51.483Z,73.43
2023-01-11T08:13:49.120Z,73.43
2023-01-11T08:14:49.107Z,73.43
2023-01-11T08:15:49.144Z,73.43
2023-01-11T08:16:49.084Z,73.43
2023-01-11T08:17:49.071Z,73.43
2023-01-11T08:18:49.055Z,73.43
2023-01-11T08:19:49.046Z,73.43
2023-01-11T08:20:49.030Z,73.43
2023-01-11T08:21:49.030Z,73.43
2023-01-11T08:22:49.003Z,73.43
2023-01-11T08:23:48.990Z,73.43
2023-01-11T08:24:48.975Z,73.43
2023-01-11T08:25:48.970Z,73.43
2023-01-11T08:26:48.979Z,73.43
2023-01-11T08:27:48.970Z,73.43
2023-01-11T08:28:48.922Z,73.43
2023-01-11T08:29:48.912Z,73.43
2023-01-11T08:30:48.941Z,73.43
2023-01-11T08:31:48.884Z,73.43
2023-01-11T08:32:48.869Z,73.43
2023-01-11T08:33:48.857Z,73.43
2023-01-11T08:34:48.843Z,73.43
2023-01-11T08:35:48.833Z,73.43
2023-01-11T08:36:48.822Z,73.43
2023-01-11T08:37:48.810Z,73.43
2023-01-11T08:38:48.790Z,73.43
2023-01-11T08:39:48.778Z,73.43
2023-01-11T08:40:48.771Z,73.43
2023-01-11T08:41:48.754Z,73.43
2023-01-11T08:42:48.753Z,73.43
2023-01-11T08:43:48.757Z,73.43
2023-01-11T08:44:48.717Z,73.43
2023-01-11T08:45:48.701Z,73.53
2023-01-11T08:46:48.686Z,73.53
2023-01-11T08:47:48.678Z,73.43
2023-01-11T08:48:48.660Z,73.53
2023-01-11T08:49:48.646Z,73.53
2023-01-11T08:50:48.638Z,73.53
2023-01-11T08:51:48.619Z,73.53
2023-01-11T08:52:48.614Z,73.53
2023-01-11T08:53:48.596Z,73.53
2023-01-11T08:54:48.580Z,73.53
2023-01-11T08:55:48.566Z,73.53
2023-01-11T08:56:48.566Z,73.53
2023-01-11T08:57:48.539Z,73.53
2023-01-11T08:58:48.528Z,73.53
2023-01-11T08:59:48.544Z,73.53
2023-01-11T09:00:48.504Z,73.53
2023-01-11T09:01:48.523Z,73.53
2023-01-11T09:02:48.528Z,73.53
2023-01-11T09:03:48.470Z,73.53
2023-01-11T09:04:48.450Z,73.63
2023-01-11T09:05:48.443Z,73.53
2023-01-11T09:06:48.424Z,73.63
2023-01-11T09:07:48.422Z,73.53
2023-01-11T09:08:48.397Z,73.53
2023-01-11T09:09:48.381Z,73.53
2023-01-11T09:10:48.369Z,73.53
2023-01-11T09:11:48.354Z,73.53
2023-01-11T09:12:48.344Z,73.53
2023-01-11T09:13:48.331Z,73.63
2023-01-11T09:14:48.319Z,73.53
2023-01-11T09:15:48.444Z,73.63
2023-01-11T09:16:48.292Z,73.53
2023-01-11T09:17:48.279Z,73.53
2023-01-11T09:18:48.262Z,73.53
2023-01-11T09:19:48.258Z,73.53
2023-01-11T09:20:48.239Z,73.63
2023-01-11T09:21:48.231Z,73.53
2023-01-11T09:22:48.212Z,73.63
2023-01-11T09:23:48.213Z,73.53
2023-01-11T09:24:48.186Z,73.53
2023-01-11T09:25:48.171Z,73.63
2023-01-11T09:26:48.225Z,73.63
2023-01-11T09:27:48.146Z,73.63
2023-01-11T09:28:48.175Z,73.63
2023-01-11T09:29:48.119Z,73.63
2023-01-11T09:30:48.105Z,73.63
2023-01-11T09:31:48.112Z,73.63
2023-01-11T09:32:48.101Z,73.63
2023-01-11T09:33:48.066Z,73.63
2023-01-11T09:34:48.055Z,73.63
2023-01-11T09:35:48.038Z,73.63
2023-01-11T09:36:48.032Z,73.63
2023-01-11T09:37:48.015Z,73.63
2023-01-11T09:38:48.000Z,73.63
2023-01-11T09:39:47.986Z,73.63
2023-01-11T09:40:47.982Z,73.63
2023-01-11T09:41:47.962Z,73.63
2023-01-11T09:42:47.962Z,73.63
2023-01-11T09:43:47.938Z,73.63
2023-01-11T09:44:47.935Z,73.63
2023-01-11T09:45:47.915Z,73.63
2023-01-11T09:46:47.943Z,73.63
2023-01-11T09:47:47.914Z,73.63
2023-01-11T09:48:47.873Z,73.63
2023-01-11T09:49:47.857Z,73.63
2023-01-11T09:50:47.907Z,73.63
2023-01-11T09:51:47.831Z,73.63
2023-01-11T09:52:47.852Z,73.63
2023-01-11T09:53:47.802Z,73.63
2023-01-11T09:54:47.801Z,73.53
2023-01-11T09:55:47.785Z,73.63
2023-01-11T09:56:47.764Z,73.63
2023-01-11T09:57:47.816Z,73.63
2023-01-11T09:58:47.740Z,73.63
2023-01-11T09:59:47.725Z,73.74
2023-01-11T10:00:47.753Z,73.74
2023-01-11T10:01:47.697Z,73.63
2023-01-11T10:02:47.688Z,73.63
2023-01-11T10:03:47.704Z,73.63
2023-01-11T10:04:47.752Z,73.74
2023-01-11T10:05:47.657Z,73.63
2023-01-11T10:06:47.633Z,73.74
2023-01-11T10:07:47.625Z,73.74
2023-01-11T10:18:22.583Z,73.74
2023-01-11T10:18:32.234Z,73.63
2023-01-11T10:18:37.851Z,73.74
2023-01-11T10:18:43.436Z,73.74
2023-01-11T10:19:05.303Z,73.74
2023-01-11T10:19:48.603Z,73.74
2023-01-11T10:20:47.450Z,73.74
2023-01-11T10:21:47.478Z,73.74
2023-01-11T10:22:47.424Z,73.74
2023-01-11T10:23:47.634Z,73.63
2023-01-11T10:24:47.396Z,73.63
2023-01-11T10:25:47.383Z,73.74
2023-01-11T10:26:47.391Z,73.74
2023-01-11T10:27:47.362Z,73.74
2023-01-11T10:28:47.344Z,73.74
2023-01-11T10:29:47.327Z,73.74
2023-01-11T10:30:47.318Z,73.74
2023-01-11T10:31:47.377Z,73.74
2023-01-11T10:32:47.297Z,73.74
2023-01-11T10:33:47.280Z,73.74
2023-01-11T10:34:47.268Z,73.74
2023-01-11T10:35:47.288Z,73.74
2023-01-11T10:36:47.248Z,73.74
2023-01-11T10:37:47.226Z,73.74
2023-01-11T10:38:47.217Z,73.74
2023-01-11T10:39:47.197Z,73.74
2023-01-11T10:40:47.188Z,73.74
2023-01-11T10:41:47.172Z,73.74
2023-01-11T10:42:47.164Z,73.74
2023-01-11T10:43:47.144Z,73.74
2023-01-11T10:44:47.138Z,73.84
2023-01-11T10:45:47.236Z,73.74
2023-01-11T10:46:47.110Z,73.84
2023-01-11T10:47:47.097Z,73.84
2023-01-11T10:48:47.088Z,73.84
2023-01-11T10:49:47.068Z,73.84
2023-01-11T10:50:47.054Z,73.84
2023-01-11T10:51:47.063Z,73.84
2023-01-11T10:52:47.029Z,73.84
2023-01-11T10:53:47.016Z,73.84
2023-01-11T10:54:47.757Z,73.84
2023-01-11T10:55:46.993Z,73.84
2023-01-11T10:57:03.036Z,73.84
2023-01-11T10:58:01.466Z,73.84
2023-01-11T10:58:48.011Z,73.84
2023-01-11T10:59:46.934Z,73.84
2023-01-11T11:00:46.963Z,73.84
2023-01-11T11:01:46.937Z,73.84
2023-01-11T11:02:46.896Z,73.84
2023-01-11T11:03:46.884Z,73.84
2023-01-11T11:04:46.869Z,73.84
2023-01-11T11:05:46.858Z,73.84
2023-01-11T11:06:46.844Z,73.84
2023-01-11T11:07:46.857Z,73.95
2023-01-11T11:08:46.822Z,73.84
2023-01-11T11:09:46.810Z,73.95
2023-01-11T11:10:46.790Z,73.95
2023-01-11T11:11:46.775Z,73.95
2023-01-11T11:12:46.765Z,73.84
2023-01-11T11:13:46.755Z,73.95
2023-01-11T11:14:46.741Z,73.95
2023-01-11T11:15:46.725Z,73.84
2023-01-11T11:16:46.822Z,73.84
2023-01-11T11:17:46.699Z,73.95
2023-01-11T11:18:46.693Z,73.95
2023-01-11T11:19:46.671Z,73.95
2023-01-11T11:20:46.659Z,73.95
2023-01-11T11:21:46.645Z,73.95
2023-01-11T11:22:46.631Z,73.95
2023-01-11T11:23:46.654Z,73.95
2023-01-11T11:24:46.606Z,73.95
2023-01-11T11:25:46.594Z,73.95
2023-01-11T11:26:46.669Z,73.95
2023-01-11T11:27:46.567Z,73.95
2023-01-11T11:28:46.555Z,74.05
2023-01-11T11:29:46.540Z,73.95
2023-01-11T11:30:46.527Z,74.05
2023-01-11T11:31:46.569Z,73.95
2023-01-11T11:32:46.500Z,74.05
2023-01-11T11:33:46.487Z,74.05
2023-01-11T11:34:46.475Z,74.05
2023-01-11T11:35:46.459Z,74.05
2023-01-11T11:36:46.452Z,74.05
2023-01-11T11:37:46.434Z,74.05
2023-01-11T11:38:46.421Z,74.05
2023-01-11T11:39:46.433Z,74.15
2023-01-11T11:40:46.397Z,74.25
2023-01-11T11:41:46.389Z,74.25
2023-01-11T11:42:46.380Z,74.15
2023-01-11T11:43:46.368Z,74.25
2023-01-11T11:44:46.348Z,74.35
2023-01-11T11:45:46.342Z,74.35
2023-01-11T11:46:46.319Z,74.46
2023-01-11T11:47:46.304Z,74.46
2023-01-11T11:48:46.289Z,74.46
2023-01-11T11:49:46.279Z,74.56
2023-01-11T11:50:46.421Z,74.56
2023-01-11T11:51:46.254Z,74.76
2023-01-11T11:52:46.241Z,74.87
2023-01-11T11:53:46.222Z,75.07
2023-01-11T11:54:46.212Z,75.07
2023-01-11T11:55:46.220Z,75.38
2023-01-11T11:56:46.192Z,75.38
2023-01-11T11:57:46.170Z,75.38
2023-01-11T11:58:46.170Z,75.69
2023-01-11T11:59:46.151Z,75.18
2023-01-11T12:00:46.134Z,75.28
2023-01-11T12:01:46.119Z,75.38
2023-01-11T12:02:46.107Z,75.28
2023-01-11T12:03:46.091Z,75.18
2023-01-11T12:04:46.113Z,75.38
2023-01-11T12:05:46.077Z,75.18
2023-01-11T12:06:46.514Z,75.48
2023-01-11T12:07:54.770Z,75.59
2023-01-11T12:08:47.067Z,75.59
2023-01-11T12:09:46.011Z,75.59
2023-01-11T12:10:45.999Z,75.48
2023-01-11T12:11:46.043Z,75.69
2023-01-11T12:12:45.973Z,75.69
2023-01-11T12:13:45.960Z,75.18
2023-01-11T12:14:45.946Z,75.07
2023-01-11T12:15:45.931Z,75.38
2023-01-11T12:16:46.050Z,75.28
2023-01-11T12:17:45.909Z,75.28
2023-01-11T12:18:45.894Z,75.28
2023-01-11T12:19:45.879Z,75.18
2023-01-11T12:20:45.870Z,74.97
2023-01-11T12:21:45.855Z,74.97
2023-01-11T12:22:45.840Z,74.87
2023-01-11T12:23:45.832Z,74.97
2023-01-11T12:24:45.816Z,75.18
2023-01-11T12:25:45.813Z,74.97
2023-01-11T12:26:45.892Z,74.97
2023-01-11T12:27:45.846Z,74.87
2023-01-11T12:28:45.762Z,74.67
2023-01-11T12:29:45.746Z,74.67
2023-01-11T12:30:45.775Z,74.56
2023-01-11T12:31:45.721Z,74.56
2023-01-11T12:32:45.711Z,74.56
2023-01-11T12:33:45.694Z,74.56
2023-01-11T12:34:45.683Z,74.56
2023-01-11T12:35:45.669Z,74.56
2023-01-11T12:36:45.657Z,74.76
2023-01-11T12:37:45.641Z,74.67
2023-01-11T12:38:45.637Z,74.56
2023-01-11T12:39:45.732Z,74.56
2023-01-11T12:40:45.604Z,74.67
2023-01-11T12:41:45.601Z,74.67
2023-01-11T12:42:45.585Z,74.67
2023-01-11T12:43:45.606Z,74.76
2023-01-11T12:44:45.562Z,74.56
2023-01-11T12:45:45.568Z,74.56
2023-01-11T12:46:45.526Z,74.56
2023-01-11T12:47:45.518Z,74.46
2023-01-11T12:48:45.500Z,74.56
2023-01-11T12:49:45.486Z,74.67
2023-01-11T12:50:45.482Z,74.56
2023-01-11T12:51:45.460Z,74.56
2023-01-11T12:52:45.469Z,74.56
2023-01-11T12:53:45.437Z,74.56
2023-01-11T12:54:45.423Z,74.67
2023-01-11T12:55:45.409Z,74.67
2023-01-11T12:56:45.394Z,74.56
2023-01-11T12:57:45.382Z,74.87
2023-01-11T12:58:45.366Z,74.76